createdAt,value
2022-10-11T00:02:21.532Z,8.93
2022-10-11T00:04:58.963Z,8.96
2022-10-11T00:07:41.004Z,8.95
2022-10-11T00:10:20.260Z,8.92
2022-10-11T00:12:56.307Z,9.01
2022-10-11T00:15:39.122Z,9.02
2022-10-11T00:18:25.201Z,9.00
2022-10-11T00:21:13.204Z,8.98
2022-10-11T00:23:46.556Z,8.99
2022-10-11T00:26:21.098Z,8.93
2022-10-11T00:29:02.022Z,8.96
2022-10-11T00:31:48.616Z,8.90
2022-10-11T00:34:29.731Z,8.91
2022-10-11T00:37:01.218Z,8.87
2022-10-11T00:39:37.071Z,8.86
2022-10-11T00:42:22.824Z,8.86
2022-10-11T00:45:33.070Z,8.73
2022-10-11T00:48:27.676Z,8.66
2022-10-11T00:50:57.424Z,8.63
2022-10-11T00:53:51.223Z,8.60
2022-10-11T00:56:26.161Z,8.52
2022-10-11T00:59:07.355Z,8.45
2022-10-11T01:01:46.266Z,8.40
2022-10-11T01:04:26.432Z,8.37
2022-10-11T01:07:11.293Z,8.32
2022-10-11T01:09:42.195Z,8.23
2022-10-11T01:12:31.577Z,8.24
2022-10-11T01:15:27.704Z,8.23
2022-10-11T01:18:36.671Z,8.19
2022-10-11T01:21:51.075Z,8.27
2022-10-11T01:24:59.767Z,8.22
2022-10-11T01:27:57.218Z,8.19
2022-10-11T01:30:36.447Z,8.10
2022-10-11T01:33:36.047Z,8.12
2022-10-11T01:36:37.690Z,8.10
2022-10-11T01:39:53.405Z,8.09
2022-10-11T01:42:32.643Z,8.09
2022-10-11T01:45:07.105Z,8.08
2022-10-11T01:47:39.128Z,8.14
2022-10-11T01:50:46.761Z,8.03
2022-10-11T01:53:45.761Z,7.95
2022-10-11T01:56:53.806Z,7.97
2022-10-11T01:59:59.082Z,8.00
2022-10-11T02:02:46.383Z,7.98
2022-10-11T02:05:32.499Z,7.97
2022-10-11T02:08:39.652Z,7.86
2022-10-11T02:11:31.493Z,7.86
2022-10-11T02:14:14.028Z,7.81
2022-10-11T02:16:59.630Z,7.75
2022-10-11T02:19:44.052Z,7.71
2022-10-11T02:22:39.462Z,7.70
2022-10-11T02:25:19.081Z,7.69
2022-10-11T02:28:03.530Z,7.67
2022-10-11T02:30:42.055Z,7.71
2022-10-11T02:33:21.705Z,7.63
2022-10-11T02:36:09.099Z,7.55
2022-10-11T02:39:07.299Z,7.51
2022-10-11T02:41:52.349Z,7.48
2022-10-11T02:44:59.641Z,7.52
2022-10-11T02:47:38.088Z,7.45
2022-10-11T02:50:15.056Z,7.37
2022-10-11T02:52:50.185Z,7.36
2022-10-11T02:55:31.820Z,7.32
2022-10-11T02:58:15.092Z,7.27
2022-10-11T03:00:57.317Z,7.26
2022-10-11T03:03:52.203Z,7.20
2022-10-11T03:06:29.622Z,7.19
2022-10-11T03:09:10.885Z,7.18
2022-10-11T03:11:44.288Z,7.16
2022-10-11T03:14:26.321Z,7.16
2022-10-11T03:17:35.120Z,7.21
2022-10-11T03:20:07.107Z,7.24
2022-10-11T03:22:44.336Z,7.27
2022-10-11T03:25:19.721Z,7.34
2022-10-11T03:28:00.688Z,7.38
2022-10-11T03:30:50.015Z,7.43
2022-10-11T03:33:31.132Z,7.50
2022-10-11T03:36:04.755Z,7.57
2022-10-11T03:38:45.947Z,7.59
2022-10-11T03:41:15.431Z,7.61
2022-10-11T03:43:53.203Z,7.68
2022-10-11T03:46:26.049Z,7.71
2022-10-11T03:49:20.060Z,7.92
2022-10-11T03:51:59.094Z,7.99
2022-10-11T03:54:31.097Z,8.12
2022-10-11T03:57:14.411Z,8.27
2022-10-11T03:59:51.912Z,8.18
2022-10-11T04:02:36.986Z,8.06
2022-10-11T04:05:15.267Z,8.09
2022-10-11T04:08:00.034Z,8.11
2022-10-11T04:10:51.060Z,8.13
2022-10-11T04:13:20.772Z,8.22
2022-10-11T04:15:57.047Z,8.30
2022-10-11T04:18:32.082Z,8.25
2022-10-11T04:21:15.492Z,8.31
2022-10-11T04:23:52.608Z,8.36
2022-10-11T04:26:36.126Z,8.41
2022-10-11T04:29:11.059Z,8.55
2022-10-11T04:31:52.155Z,8.59
2022-10-11T04:34:35.932Z,8.57
2022-10-11T04:37:16.484Z,8.63
2022-10-11T04:39:59.276Z,8.63
2022-10-11T04:42:37.679Z,8.72
2022-10-11T04:45:10.084Z,8.73
2022-10-11T04:47:45.529Z,8.71
2022-10-11T04:50:24.040Z,8.75
2022-10-11T04:53:02.001Z,8.76
2022-10-11T04:55:51.219Z,8.76
2022-10-11T04:58:29.010Z,8.81
2022-10-11T05:04:10.210Z,8.85
2022-10-11T05:06:54.634Z,8.86
2022-10-11T05:09:36.193Z,8.83
2022-10-11T05:12:14.741Z,8.89
2022-10-11T05:15:02.449Z,8.89
2022-10-11T05:17:48.936Z,8.90
2022-10-11T05:20:24.365Z,8.99
2022-10-11T05:23:08.567Z,9.07
2022-10-11T05:25:46.594Z,9.07
2022-10-11T05:28:27.118Z,8.99
2022-10-11T05:31:10.908Z,9.05
2022-10-11T05:33:46.731Z,9.23
2022-10-11T05:36:38.049Z,9.35
2022-10-11T05:39:25.506Z,9.44
2022-10-11T05:42:09.929Z,9.59
2022-10-11T05:44:40.228Z,9.69
2022-10-11T05:47:26.786Z,9.76
2022-10-11T05:50:06.703Z,9.69
2022-10-11T05:52:46.149Z,10.07
2022-10-11T05:55:13.639Z,10.27
2022-10-11T05:58:03.800Z,10.34
2022-10-11T06:00:46.852Z,10.43
2022-10-11T06:03:24.039Z,10.55
2022-10-11T06:06:15.348Z,10.75
2022-10-11T06:08:57.480Z,10.86
2022-10-11T06:11:39.213Z,11.02
2022-10-11T06:14:17.039Z,11.22
2022-10-11T06:16:48.879Z,11.40
2022-10-11T06:19:38.625Z,11.55
2022-10-11T06:22:20.701Z,11.72
2022-10-11T06:25:00.834Z,11.69
2022-10-11T06:27:46.366Z,11.97
2022-10-11T06:30:33.821Z,12.22
2022-10-11T06:33:18.948Z,12.40
2022-10-11T06:36:02.397Z,12.55
2022-10-11T06:38:38.002Z,12.72
2022-10-11T06:41:21.296Z,12.90
2022-10-11T06:44:14.286Z,12.91
2022-10-11T06:46:52.770Z,12.83
2022-10-11T06:49:34.571Z,12.95
2022-10-11T06:52:19.837Z,13.14
2022-10-11T06:55:00.326Z,13.22
2022-10-11T06:57:35.767Z,13.22
2022-10-11T07:00:12.906Z,13.22
2022-10-11T07:02:48.212Z,13.30
2022-10-11T07:05:33.049Z,13.36
2022-10-11T07:08:07.809Z,13.40
2022-10-11T07:10:44.055Z,13.58
2022-10-11T07:13:22.518Z,13.72
2022-10-11T07:15:55.354Z,13.85
2022-10-11T07:18:36.412Z,13.83
2022-10-11T07:21:07.507Z,13.94
2022-10-11T07:23:40.968Z,14.09
2022-10-11T07:26:09.437Z,14.16
2022-10-11T07:28:52.183Z,14.24
2022-10-11T07:31:34.812Z,14.44
2022-10-11T07:34:12.196Z,14.63
2022-10-11T07:36:54.000Z,14.72
2022-10-11T07:39:34.451Z,14.70
2022-10-11T07:42:10.088Z,15.01
2022-10-11T07:44:48.650Z,15.16
2022-10-11T07:47:31.150Z,15.18
2022-10-11T07:49:57.958Z,15.46
2022-10-11T07:52:37.537Z,15.48
2022-10-11T07:55:17.723Z,15.13
2022-10-11T07:57:58.460Z,15.18
2022-10-11T08:00:40.393Z,15.23
2022-10-11T08:03:26.252Z,15.20
2022-10-11T08:06:06.332Z,15.25
2022-10-11T08:08:49.974Z,15.30
2022-10-11T08:11:42.879Z,15.40
2022-10-11T08:14:21.166Z,15.38
2022-10-11T08:17:01.175Z,15.28
2022-10-11T08:19:38.542Z,15.45
2022-10-11T08:22:20.122Z,15.51
2022-10-11T08:24:59.918Z,15.67
2022-10-11T08:27:34.854Z,15.85
2022-10-11T08:30:21.143Z,16.04
2022-10-11T08:32:56.406Z,16.16
2022-10-11T08:35:35.294Z,16.22
2022-10-11T08:38:14.227Z,16.03
2022-10-11T08:40:58.713Z,16.19
2022-10-11T08:43:50.349Z,16.06
2022-10-11T08:47:00.312Z,15.99
2022-10-11T08:49:43.403Z,16.13
2022-10-11T08:52:41.187Z,16.24
2022-10-11T08:55:45.115Z,16.31
2022-10-11T08:58:22.437Z,16.28
2022-10-11T09:01:13.747Z,16.19
2022-10-11T09:04:06.191Z,16.20
2022-10-11T09:07:07.488Z,16.44
2022-10-11T09:09:52.948Z,16.52
2022-10-11T09:12:56.244Z,16.68
2022-10-11T09:15:46.926Z,16.76
2022-10-11T09:18:52.286Z,16.91
2022-10-11T09:21:50.378Z,16.98
2022-10-11T09:24:38.050Z,17.10
2022-10-11T09:28:02.260Z,17.29
2022-10-11T09:30:45.814Z,17.73
2022-10-11T09:33:39.488Z,17.98
2022-10-11T09:36:25.599Z,18.19
2022-10-11T09:39:33.092Z,18.10
2022-10-11T09:42:12.024Z,18.22
2022-10-11T09:45:03.414Z,18.38
2022-10-11T09:47:55.531Z,18.81
2022-10-11T09:50:35.745Z,18.96
2022-10-11T09:53:08.180Z,19.15
2022-10-11T09:56:07.868Z,18.80
2022-10-11T09:58:48.680Z,19.02
2022-10-11T10:01:32.836Z,19.39
2022-10-11T10:04:13.769Z,19.11
2022-10-11T10:06:46.063Z,19.03
2022-10-11T10:09:34.103Z,19.09
2022-10-11T10:12:14.026Z,19.34
2022-10-11T10:15:06.970Z,19.37
2022-10-11T10:17:51.333Z,19.79
2022-10-11T10:20:33.578Z,19.99
2022-10-11T10:23:20.977Z,20.10
2022-10-11T10:26:19.974Z,20.22
2022-10-11T10:29:09.599Z,20.13
2022-10-11T10:32:14.905Z,19.65
2022-10-11T10:35:20.098Z,19.98
2022-10-11T10:38:15.895Z,19.90
2022-10-11T10:40:53.616Z,20.05
2022-10-11T10:43:41.205Z,19.92
2022-10-11T10:46:33.324Z,19.77
2022-10-11T10:49:52.696Z,19.89
2022-10-11T10:52:42.997Z,19.84
2022-10-11T10:55:31.775Z,19.93
2022-10-11T10:58:39.338Z,19.98
2022-10-11T11:01:32.142Z,19.49
2022-10-11T11:04:28.016Z,19.03
2022-10-11T11:07:24.949Z,19.00
2022-10-11T11:10:19.504Z,19.30
2022-10-11T11:13:41.456Z,19.39
2022-10-11T11:19:49.233Z,19.28
2022-10-11T11:22:40.284Z,19.36
2022-10-11T11:26:00.741Z,19.21
2022-10-11T11:28:57.551Z,19.48
2022-10-11T11:32:13.890Z,19.54
2022-10-11T11:35:15.250Z,19.47
2022-10-11T11:38:02.542Z,19.54
2022-10-11T11:40:54.357Z,19.63
2022-10-11T11:44:06.014Z,19.63
2022-10-11T11:46:43.599Z,19.60
2022-10-11T11:52:43.456Z,19.89
2022-10-11T11:55:25.617Z,19.98
2022-10-11T11:58:20.184Z,20.09
2022-10-11T12:01:30.964Z,20.13
2022-10-11T12:04:28.563Z,20.22
2022-10-11T12:07:19.833Z,20.23
2022-10-11T12:09:55.311Z,20.26
2022-10-11T12:12:39.389Z,19.89
2022-10-11T12:15:30.365Z,19.95
2022-10-11T12:18:17.613Z,19.85
2022-10-11T12:21:30.620Z,19.81
2022-10-11T12:24:16.163Z,19.91
2022-10-11T12:27:03.089Z,20.22
2022-10-11T12:29:50.086Z,20.31
2022-10-11T12:32:30.812Z,20.53
2022-10-11T12:35:36.520Z,20.37
2022-10-11T12:38:22.720Z,20.43
2022-10-11T12:41:21.469Z,20.48
2022-10-11T12:44:08.929Z,20.27
2022-10-11T12:47:22.954Z,20.42
2022-10-11T12:50:12.157Z,20.55
2022-10-11T12:53:12.453Z,20.13
2022-10-11T12:56:09.145Z,20.03
2022-10-11T12:58:52.947Z,19.86
2022-10-11T13:01:37.030Z,19.73
2022-10-11T13:04:28.799Z,19.85
2022-10-11T13:07:18.514Z,20.04
2022-10-11T13:13:26.082Z,20.32
2022-10-11T13:16:09.426Z,20.57
2022-10-11T13:18:53.767Z,20.83
2022-10-11T13:21:47.572Z,21.03
2022-10-11T13:24:29.049Z,21.25
2022-10-11T13:27:10.726Z,21.35
2022-10-11T13:29:47.633Z,21.58
2022-10-11T13:32:36.468Z,21.79
2022-10-11T13:35:22.355Z,21.85
2022-10-11T13:38:00.435Z,21.77
2022-10-11T13:40:35.839Z,21.25
2022-10-11T13:43:12.667Z,20.91
2022-10-11T13:45:50.448Z,20.74
2022-10-11T13:48:47.861Z,20.50
2022-10-11T13:51:36.302Z,20.25
2022-10-11T13:54:13.120Z,20.06
2022-10-11T13:56:58.621Z,19.98
2022-10-11T14:02:22.543Z,19.78
2022-10-11T14:05:03.573Z,19.72
2022-10-11T14:07:42.167Z,19.67
2022-10-11T14:10:38.905Z,19.53
2022-10-11T14:13:26.903Z,19.53
2022-10-11T14:16:27.034Z,19.52
2022-10-11T14:19:10.667Z,19.46
2022-10-11T14:21:55.080Z,19.40
2022-10-11T14:25:05.284Z,19.36
2022-10-11T14:27:42.793Z,19.36
2022-10-11T14:30:27.407Z,19.28
2022-10-11T14:33:14.181Z,19.27
2022-10-11T14:35:50.567Z,19.26
2022-10-11T14:38:30.776Z,19.21
2022-10-11T14:41:16.064Z,19.12
2022-10-11T14:43:57.195Z,19.03
2022-10-11T14:46:35.290Z,18.89
2022-10-11T14:49:17.087Z,18.91
2022-10-11T14:51:51.281Z,18.93
2022-10-11T14:54:33.806Z,18.87
2022-10-11T14:57:12.268Z,18.87
2022-10-11T14:59:50.072Z,18.80
2022-10-11T15:02:28.113Z,18.70
2022-10-11T15:05:04.126Z,18.55
2022-10-11T15:07:37.137Z,18.48
2022-10-11T15:10:16.378Z,18.35
2022-10-11T15:12:49.865Z,18.19
2022-10-11T15:15:32.861Z,18.12
2022-10-11T15:18:37.289Z,18.09
2022-10-11T15:21:27.727Z,18.04
2022-10-11T15:24:14.462Z,18.00
2022-10-11T15:26:51.334Z,17.91
2022-10-11T15:29:24.356Z,17.81
2022-10-11T15:32:04.378Z,17.75
2022-10-11T15:34:46.858Z,17.69
2022-10-11T15:37:28.698Z,17.58
2022-10-11T15:40:18.081Z,17.50
2022-10-11T15:43:04.135Z,17.36
2022-10-11T15:45:39.547Z,17.27
2022-10-11T15:48:21.196Z,17.16
2022-10-11T15:50:59.323Z,16.98
2022-10-11T15:53:37.090Z,16.82
2022-10-11T15:56:12.349Z,16.68
2022-10-11T15:58:50.346Z,16.52
2022-10-11T16:01:21.170Z,16.41
2022-10-11T16:04:01.550Z,16.28
2022-10-11T16:06:41.162Z,16.13
2022-10-11T16:09:18.829Z,15.81
2022-10-11T16:11:54.569Z,15.54
2022-10-11T16:14:33.886Z,15.26
2022-10-11T16:17:12.301Z,15.12
2022-10-11T16:19:53.398Z,15.09
2022-10-11T16:22:29.282Z,15.06
2022-10-11T16:25:02.495Z,15.02
2022-10-11T16:27:40.662Z,14.89
2022-10-11T16:30:22.077Z,14.83
2022-10-11T16:33:13.130Z,14.73
2022-10-11T16:35:49.316Z,14.57
2022-10-11T16:38:27.548Z,14.48
2022-10-11T16:40:57.284Z,14.40
2022-10-11T16:43:31.936Z,14.32
2022-10-11T16:46:03.581Z,14.23
2022-10-11T16:48:36.035Z,14.16
2022-10-11T16:51:09.685Z,14.07
2022-10-11T16:53:48.111Z,13.99
2022-10-11T16:56:37.403Z,13.90
2022-10-11T16:59:21.058Z,13.76
2022-10-11T17:01:58.940Z,13.66
2022-10-11T17:04:35.094Z,13.57
2022-10-11T17:07:21.917Z,13.50
2022-10-11T17:10:04.164Z,13.41
2022-10-11T17:12:46.539Z,13.36
2022-10-11T17:15:29.409Z,13.25
2022-10-11T17:18:15.938Z,13.19
2022-10-11T17:20:51.913Z,13.07
2022-10-11T17:23:35.872Z,12.90
2022-10-11T17:26:23.638Z,12.90
2022-10-11T17:31:53.498Z,12.80
2022-10-11T17:34:29.120Z,12.74
2022-10-11T17:37:06.032Z,12.66
2022-10-11T17:39:47.283Z,12.60
2022-10-11T17:42:37.561Z,12.53
2022-10-11T17:45:22.005Z,12.41
2022-10-11T17:47:58.779Z,12.36
2022-10-11T17:50:50.356Z,12.33
2022-10-11T17:53:35.610Z,12.29
2022-10-11T17:56:18.766Z,12.27
2022-10-11T17:59:14.270Z,12.24
2022-10-11T18:01:50.372Z,12.19
2022-10-11T18:04:29.489Z,12.16
2022-10-11T18:09:56.348Z,12.22
2022-10-11T18:12:35.056Z,12.27
2022-10-11T18:15:16.073Z,12.35
2022-10-11T18:17:47.366Z,12.51
2022-10-11T18:20:29.859Z,12.50
2022-10-11T18:23:03.496Z,12.48
2022-10-11T18:25:45.829Z,12.75
2022-10-11T18:28:31.775Z,12.67
2022-10-11T18:31:17.958Z,12.64
2022-10-11T18:34:00.168Z,12.61
2022-10-11T18:36:50.028Z,12.59
2022-10-11T18:39:23.716Z,12.59
2022-10-11T18:42:00.468Z,12.63
2022-10-11T18:44:38.196Z,12.64
2022-10-11T18:47:32.489Z,12.64
2022-10-11T18:50:06.774Z,12.66
2022-10-11T18:52:48.674Z,12.69
2022-10-11T18:55:33.067Z,12.70
2022-10-11T18:58:12.074Z,12.72
2022-10-11T19:00:53.199Z,12.72
2022-10-11T19:03:52.785Z,12.70
2022-10-11T19:06:32.879Z,12.68
2022-10-11T19:09:13.332Z,12.70
2022-10-11T19:11:50.901Z,12.69
2022-10-11T19:14:29.450Z,12.67
2022-10-11T19:17:11.171Z,12.72
2022-10-11T19:19:44.089Z,12.64
2022-10-11T19:22:23.272Z,12.66
2022-10-11T19:25:01.461Z,12.81
2022-10-11T19:27:39.653Z,12.89
2022-10-11T19:30:17.880Z,12.96
2022-10-11T19:32:48.212Z,12.73
2022-10-11T19:35:20.460Z,12.69
2022-10-11T19:38:00.729Z,12.71
2022-10-11T19:40:41.937Z,12.80
2022-10-11T19:43:22.112Z,12.81
2022-10-11T19:45:54.682Z,12.74
2022-10-11T19:48:31.093Z,12.70
2022-10-11T19:51:15.065Z,12.66
2022-10-11T19:54:03.564Z,12.60
2022-10-11T19:56:43.875Z,12.54
2022-10-11T19:59:39.152Z,12.51
2022-10-11T20:02:15.730Z,12.44
2022-10-11T20:05:00.969Z,12.39
2022-10-11T20:07:49.871Z,12.40
2022-10-11T20:10:36.071Z,12.36
2022-10-11T20:13:14.615Z,12.44
2022-10-11T20:15:55.557Z,12.35
2022-10-11T20:18:46.084Z,12.24
2022-10-11T20:21:29.517Z,12.33
2022-10-11T20:23:59.309Z,12.17
2022-10-11T20:26:48.782Z,12.04
2022-10-11T20:29:27.274Z,11.97
2022-10-11T20:32:02.062Z,11.97
2022-10-11T20:34:56.484Z,11.87
2022-10-11T20:37:32.187Z,11.75
2022-10-11T20:40:07.316Z,11.71
2022-10-11T20:42:43.262Z,11.66
2022-10-11T20:45:21.616Z,11.63
2022-10-11T20:48:00.856Z,11.55
2022-10-11T20:50:51.723Z,11.50
2022-10-11T20:53:24.962Z,11.49
2022-10-11T20:56:06.396Z,11.40
2022-10-11T20:58:53.842Z,11.41
2022-10-11T21:01:43.191Z,11.49
2022-10-11T21:04:30.676Z,11.49
2022-10-11T21:07:11.729Z,11.52
2022-10-11T21:09:55.869Z,11.50
2022-10-11T21:12:40.025Z,11.51
2022-10-11T21:15:21.080Z,11.47
2022-10-11T21:17:59.695Z,11.51
2022-10-11T21:20:32.981Z,11.55
2022-10-11T21:23:08.843Z,11.52
2022-10-11T21:25:58.106Z,11.51
2022-10-11T21:28:34.137Z,11.49
2022-10-11T21:31:15.598Z,11.47
2022-10-11T21:33:46.217Z,11.45
2022-10-11T21:36:24.955Z,11.41
2022-10-11T21:38:56.255Z,11.38
2022-10-11T21:41:37.433Z,11.34
2022-10-11T21:44:20.622Z,11.25
2022-10-11T21:47:08.447Z,11.24
2022-10-11T21:49:44.459Z,11.16
2022-10-11T21:52:17.466Z,11.11
2022-10-11T21:54:47.693Z,11.07
2022-10-11T21:57:20.294Z,11.05
2022-10-11T21:59:59.066Z,11.27
2022-10-11T22:02:37.934Z,11.28
2022-10-11T22:05:15.288Z,11.12
2022-10-11T22:07:48.981Z,11.07
2022-10-11T22:10:23.655Z,11.06
2022-10-11T22:13:03.068Z,10.98
2022-10-11T22:15:40.265Z,10.95
2022-10-11T22:18:20.855Z,10.90
2022-10-11T22:21:22.518Z,10.89
2022-10-11T22:23:58.169Z,10.80
2022-10-11T22:26:30.115Z,10.90
2022-10-11T22:29:09.046Z,11.02
2022-10-11T22:31:42.460Z,11.07
2022-10-11T22:34:19.060Z,11.00
2022-10-11T22:36:51.178Z,10.99
2022-10-11T22:39:18.653Z,10.94
2022-10-11T22:42:03.290Z,10.94
2022-10-11T22:44:36.996Z,10.87
2022-10-11T22:47:21.198Z,10.84
2022-10-11T22:49:55.107Z,10.72
2022-10-11T22:52:28.954Z,10.71
2022-10-11T22:55:08.196Z,10.68
2022-10-11T22:57:55.584Z,10.66
2022-10-11T23:00:39.098Z,10.57
2022-10-11T23:03:18.587Z,10.54
2022-10-11T23:06:00.472Z,10.51
2022-10-11T23:08:32.972Z,10.50
2022-10-11T23:11:18.142Z,10.48
2022-10-11T23:13:47.902Z,10.42
2022-10-11T23:16:29.632Z,10.45
2022-10-11T23:19:07.842Z,10.39
2022-10-11T23:21:51.094Z,10.36
2022-10-11T23:24:46.992Z,10.34
2022-10-11T23:27:32.161Z,10.30
2022-10-11T23:30:07.781Z,10.25
2022-10-11T23:32:45.303Z,10.28
2022-10-11T23:35:18.762Z,10.27
2022-10-11T23:38:07.324Z,10.22
2022-10-11T23:40:45.182Z,10.14
2022-10-11T23:43:44.242Z,10.14
2022-10-11T23:46:24.902Z,10.17
2022-10-11T23:48:51.734Z,10.11
2022-10-11T23:51:26.289Z,10.07
2022-10-11T23:54:04.100Z,10.04
2022-10-11T23:56:48.095Z,10.03
2022-10-11T23:59:30.000Z,10.00
